Time;durP1;ratioP1;P1;durP2;ratioP2;P2;SDS_P1;SDS_P2;PMS_P1;PMS_P2;Temp;Humidity;BMP_temperature;BMP_pressure;BME280_temperature;BME280_humidity;BME280_pressure;Samples;Min_cycle;Max_cycle;Signal;HPM_P1;HPM_P2
2022/08/19 00:00:31;;;;;;;15.50;13.90;;;;;;;21.27;75.86;156833.56;4973108;28;20791;-87
2022/08/19 00:02:58;;;;;;;16.27;14.57;;;;;;;21.24;75.96;156825.72;4972987;28;20454;-87
2022/08/19 00:05:25;;;;;;;15.03;13.43;;;;;;;21.22;76.11;156820.53;4963321;28;20458;-77
2022/08/19 00:07:53;;;;;;;13.97;12.57;;;;;;;21.20;76.33;156816.63;4975878;28;20873;-77
2022/08/19 00:10:20;;;;;;;16.60;13.60;;;;;;;21.20;76.23;156815.31;4973953;28;20537;-77
2022/08/19 00:12:47;;;;;;;16.30;14.70;;;;;;;21.24;75.83;156825.72;4955791;28;20977;-77
2022/08/19 00:15:16;;;;;;;16.33;14.73;;;;;;;21.23;75.95;156824.41;4973244;28;20545;-77
2022/08/19 00:17:44;;;;;;;15.03;13.53;;;;;;;21.23;75.76;156823.16;4974818;28;20952;-77
2022/08/19 00:20:16;;;;;;;15.10;13.57;;;;;;;21.23;75.88;156824.41;4974020;28;20536;-77
2022/08/19 00:22:44;;;;;;;14.67;13.17;;;;;;;21.24;76.23;156825.72;4992151;28;20477;-77
2022/08/19 00:25:13;;;;;;;15.97;14.37;;;;;;;21.26;75.83;156830.94;4981934;28;20585;-77
2022/08/19 00:27:40;;;;;;;14.37;12.63;;;;;;;21.21;76.03;156817.91;4971236;28;20455;-77
2022/08/19 00:30:10;;;;;;;15.33;13.83;;;;;;;21.19;76.04;156814.00;4973052;28;20443;-77
2022/08/19 00:32:36;;;;;;;15.40;13.60;;;;;;;21.16;76.65;156804.84;4956106;28;20885;-77
2022/08/19 00:35:04;;;;;;;14.77;13.30;;;;;;;21.15;76.28;156803.53;4968224;28;20566;-77
2022/08/19 00:37:30;;;;;;;14.20;12.80;;;;;;;21.13;76.71;156797.00;4970985;28;20497;-77
2022/08/19 00:39:57;;;;;;;15.30;13.83;;;;;;;21.15;76.93;156802.25;4972444;28;20893;-77
2022/08/19 00:42:28;;;;;;;15.90;14.30;;;;;;;21.13;77.71;156798.31;4973500;28;20802;-77
2022/08/19 00:44:55;;;;;;;16.80;14.13;;;;;;;21.11;78.55;156791.81;4969598;28;20509;-77
2022/08/19 00:47:21;;;;;;;15.63;13.37;;;;;;;21.05;78.70;156776.06;4972501;28;20489;-77
2022/08/19 00:49:50;;;;;;;16.27;14.67;;;;;;;21.02;79.58;156768.28;4959729;28;20474;-77
2022/08/19 00:52:21;;;;;;;16.90;15.10;;;;;;;20.97;80.74;156755.25;4954430;28;20461;-77
2022/08/19 00:54:48;;;;;;;15.83;13.97;;;;;;;20.91;80.85;156740.88;4972218;28;20475;-77
2022/08/19 00:57:17;;;;;;;16.27;14.57;;;;;;;20.90;82.32;156738.25;4970817;28;20486;-77
2022/08/19 00:59:47;;;;;;;16.63;15.00;;;;;;;20.91;81.96;156739.56;4973127;28;20576;-77
2022/08/19 01:02:15;;;;;;;16.67;15.07;;;;;;;20.90;81.91;156738.25;4974184;28;20543;-77
2022/08/19 01:04:41;;;;;;;17.20;15.40;;;;;;;20.88;81.76;156731.75;4967666;28;20458;-77
2022/08/19 01:07:09;;;;;;;16.50;14.50;;;;;;;20.85;81.65;156723.91;4973740;28;20472;-77
2022/08/19 01:09:35;;;;;;;15.87;14.27;;;;;;;20.83;81.68;156718.69;4974588;28;20481;-77
2022/08/19 01:12:03;;;;;;;15.77;14.27;;;;;;;20.81;81.85;156714.75;4969500;28;20816;-77
2022/08/19 01:14:31;;;;;;;16.13;14.47;;;;;;;20.81;81.53;156714.75;4954794;28;20517;-77
2022/08/19 01:16:59;;;;;;;15.57;14.07;;;;;;;20.82;80.96;156717.38;4971856;28;20426;-77
2022/08/19 01:19:29;;;;;;;15.07;13.57;;;;;;;20.79;81.33;156708.22;4954226;28;20463;-77
2022/08/19 01:21:59;;;;;;;16.10;14.50;;;;;;;20.78;80.74;156706.97;4970632;28;20630;-77
2022/08/19 01:24:27;;;;;;;16.27;14.63;;;;;;;20.78;80.91;156705.66;4974631;28;20513;-77
2022/08/19 01:26:54;;;;;;;16.77;15.07;;;;;;;20.71;81.32;156687.34;4991967;28;20934;-77
2022/08/19 01:29:21;;;;;;;15.97;14.40;;;;;;;20.75;81.08;156697.81;4962390;28;20862;-77
2022/08/19 01:31:48;;;;;;;15.97;14.10;;;;;;;20.73;80.63;156692.63;4972625;28;20494;-77
2022/08/19 01:34:15;;;;;;;15.33;13.50;;;;;;;20.75;80.51;156697.81;4969755;28;20489;-77
2022/08/19 01:36:47;;;;;;;15.33;13.77;;;;;;;20.75;80.65;156697.81;4978382;28;20447;-77
2022/08/19 01:39:17;;;;;;;15.97;14.37;;;;;;;20.75;80.37;156697.81;4975850;28;20469;-77
2022/08/19 01:41:45;;;;;;;15.70;13.03;;;;;;;20.72;80.48;156689.97;4980516;28;20448;-76
2022/08/19 01:44:12;;;;;;;14.97;13.47;;;;;;;20.71;80.39;156687.34;4994515;28;20444;-77
2022/08/19 01:46:40;;;;;;;15.73;14.17;;;;;;;20.70;80.45;156684.78;4994936;28;20528;-76
2022/08/19 01:49:08;;;;;;;16.03;14.43;;;;;;;20.69;80.55;156683.47;4976171;28;20489;-87
2022/08/19 01:51:35;;;;;;;15.20;13.60;;;;;;;20.67;80.19;156678.25;4973755;28;20464;-86
2022/08/19 01:54:02;;;;;;;15.90;14.30;;;;;;;20.68;80.51;156679.56;4994002;28;20940;-86
2022/08/19 01:56:29;;;;;;;15.47;13.83;;;;;;;20.68;80.21;156679.56;4974119;28;20500;-87
2022/08/19 01:59:01;;;;;;;15.40;13.90;;;;;;;20.68;80.67;156680.84;4979514;28;20575;-87
2022/08/19 02:01:31;;;;;;;16.70;15.00;;;;;;;20.64;80.25;156671.72;4994517;28;20748;-87
2022/08/19 02:03:58;;;;;;;16.03;14.00;;;;;;;20.68;80.11;156679.56;4976937;28;20457;-87
2022/08/19 02:06:25;;;;;;;15.93;14.33;;;;;;;20.68;80.38;156679.56;4964812;28;20996;-87
2022/08/19 02:08:52;;;;;;;16.13;14.40;;;;;;;20.70;80.37;156684.78;4974996;28;20537;-86
2022/08/19 02:11:21;;;;;;;17.13;15.40;;;;;;;20.72;80.15;156691.28;4978171;28;20477;-87
2022/08/19 02:13:49;;;;;;;17.63;15.83;;;;;;;20.70;80.44;156684.78;4986603;28;20450;-85
2022/08/19 02:16:18;;;;;;;16.10;14.50;;;;;;;20.67;80.26;156678.25;4975737;28;20466;-87
2022/08/19 02:18:45;;;;;;;16.13;14.43;;;;;;;20.68;80.51;156679.56;4962593;28;20471;-87
2022/08/19 02:21:12;;;;;;;15.90;14.40;;;;;;;20.65;80.42;156674.31;4955627;29;20522;-87
2022/08/19 02:23:39;;;;;;;16.40;14.77;;;;;;;20.65;80.71;156674.31;4964673;28;20551;-77
2022/08/19 02:26:06;;;;;;;16.73;15.03;;;;;;;20.59;80.70;156658.69;4975335;28;20478;-77
2022/08/19 02:28:33;;;;;;;16.87;15.07;;;;;;;20.56;80.85;156650.84;4959957;28;20552;-77
2022/08/19 02:31:00;;;;;;;17.97;16.27;;;;;;;20.60;81.03;156659.94;4976472;28;20546;-77
2022/08/19 02:33:28;;;;;;;19.00;17.03;;;;;;;20.60;81.13;156659.94;4967700;28;20468;-77
2022/08/19 02:35:55;;;;;;;18.20;16.13;;;;;;;20.57;81.18;156653.44;4957563;28;20508;-77
2022/08/19 02:38:27;;;;;;;17.33;15.53;;;;;;;20.50;81.72;156635.19;4970680;28;20501;-77
2022/08/19 02:40:55;;;;;;;19.00;17.00;;;;;;;20.47;81.83;156627.34;4963887;28;20526;-76
2022/08/19 02:43:22;;;;;;;21.63;16.37;;;;;;;20.49;81.93;156631.28;4968531;28;20482;-77
2022/08/19 02:45:51;;;;;;;19.20;16.07;;;;;;;20.43;81.98;156615.63;4954372;29;20449;-77
2022/08/19 02:48:18;;;;;;;18.87;16.87;;;;;;;20.41;82.52;156611.69;4965107;28;20439;-77
2022/08/19 02:50:47;;;;;;;19.97;17.77;;;;;;;20.40;83.45;156607.78;4978190;28;20449;-77
2022/08/19 02:53:14;;;;;;;18.50;16.53;;;;;;;20.34;84.32;156593.44;4956568;28;20473;-77
2022/08/19 02:55:45;;;;;;;19.47;17.37;;;;;;;20.34;84.28;156593.44;4956669;28;20541;-77
2022/08/19 02:58:12;;;;;;;19.00;16.57;;;;;;;20.29;84.89;156580.41;4957185;28;20849;-77
2022/08/19 03:00:43;;;;;;;19.60;17.57;;;;;;;20.26;84.93;156572.56;4955811;28;20467;-75
2022/08/19 03:03:10;;;;;;;19.63;17.63;;;;;;;20.24;85.29;156567.38;4974084;28;20547;-76
2022/08/19 03:05:37;;;;;;;19.17;17.17;;;;;;;20.24;85.85;156566.06;4969333;28;20912;-77
2022/08/19 03:08:05;;;;;;;23.40;17.80;;;;;;;20.22;86.04;156560.81;4976951;28;20811;-77
2022/08/19 03:10:32;;;;;;;19.10;17.00;;;;;;;20.18;86.25;156550.34;4983669;28;20479;-77
2022/08/19 03:12:59;;;;;;;19.57;17.47;;;;;;;20.14;86.28;156539.94;4972536;28;20439;-77
2022/08/19 03:15:26;;;;;;;19.30;17.13;;;;;;;20.13;86.35;156538.63;4972354;28;21000;-77
2022/08/19 03:17:52;;;;;;;19.63;17.60;;;;;;;20.14;86.62;156541.25;4956236;28;20439;-77
2022/08/19 03:20:19;;;;;;;21.30;19.10;;;;;;;20.12;86.48;156534.72;4959108;28;20613;-76
2022/08/19 03:22:46;;;;;;;32.03;19.10;;;;;;;20.10;86.27;156529.47;4993236;28;20932;-77
2022/08/19 03:25:14;;;;;;;20.47;18.23;;;;;;;20.10;85.99;156530.78;4984068;28;20827;-76
2022/08/19 03:27:41;;;;;;;21.37;19.17;;;;;;;20.07;86.28;156521.69;4957174;28;20509;-77
2022/08/19 03:30:09;;;;;;;21.40;19.20;;;;;;;20.04;86.40;156515.19;4967490;28;20478;-76
2022/08/19 03:32:36;;;;;;;21.27;18.97;;;;;;;19.98;86.63;156499.50;4955339;28;20448;-77
2022/08/19 03:35:03;;;;;;;19.43;17.53;;;;;;;19.95;86.61;156491.69;4954051;29;20743;-76
2022/08/19 03:37:29;;;;;;;20.97;18.53;;;;;;;19.92;87.06;156483.84;4946195;29;20464;-77
2022/08/19 03:39:56;;;;;;;21.33;19.13;;;;;;;19.92;86.92;156483.84;4955235;28;20482;-76
2022/08/19 03:42:24;;;;;;;21.30;18.90;;;;;;;19.93;86.99;156486.47;4974426;28;20438;-76
2022/08/19 03:44:52;;;;;;;21.97;19.67;;;;;;;19.87;87.04;156470.81;4972353;28;21118;-76
2022/08/19 03:47:19;;;;;;;28.60;21.10;;;;;;;19.85;87.01;156465.63;4948607;29;20452;-76
2022/08/19 03:49:46;;;;;;;23.90;19.43;;;;;;;19.89;86.71;156476.03;4953247;28;20459;-76
2022/08/19 03:52:13;;;;;;;22.37;19.53;;;;;;;19.89;87.09;156477.34;4945610;29;20455;-76
2022/08/19 03:54:40;;;;;;;22.97;20.57;;;;;;;19.89;86.77;156476.03;4936173;29;20443;-76
2022/08/19 03:57:08;;;;;;;22.40;20.00;;;;;;;19.90;87.00;156478.66;4937779;29;20502;-76
2022/08/19 03:59:37;;;;;;;22.37;20.13;;;;;;;19.89;86.87;156476.03;4949438;28;20557;-76
2022/08/19 04:02:10;;;;;;;21.57;19.33;;;;;;;19.80;87.20;156452.59;4939478;28;20450;-76
2022/08/19 04:04:38;;;;;;;23.93;21.43;;;;;;;19.77;87.14;156446.06;4953312;28;20557;-76
2022/08/19 04:07:05;;;;;;;23.83;21.33;;;;;;;19.73;87.46;156435.59;4936378;29;20450;-76
2022/08/19 04:09:32;;;;;;;23.37;20.77;;;;;;;19.77;87.26;156444.75;4958383;28;20505;-76
2022/08/19 04:11:58;;;;;;;23.33;19.37;;;;;;;19.83;86.96;156461.66;4955909;28;20549;-76
2022/08/19 04:14:29;;;;;;;23.30;20.57;;;;;;;19.76;87.47;156442.13;4934733;29;20516;-76
2022/08/19 04:16:58;;;;;;;22.97;20.33;;;;;;;19.80;87.21;156452.59;4917895;29;20453;-76
2022/08/19 04:19:25;;;;;;;23.33;20.77;;;;;;;19.76;87.16;156443.44;4955156;28;20955;-76
2022/08/19 04:21:54;;;;;;;22.50;20.00;;;;;;;19.75;87.07;156439.56;4954411;28;20918;-76
2022/08/19 04:24:21;;;;;;;24.40;21.47;;;;;;;19.74;87.16;156436.91;4957881;28;20502;-75
2022/08/19 04:26:49;;;;;;;25.40;22.00;;;;;;;19.72;87.19;156431.72;4974518;28;20454;-76
2022/08/19 04:29:18;;;;;;;24.47;21.43;;;;;;;19.76;87.09;156442.13;4969795;28;20545;-76
2022/08/19 04:31:45;;;;;;;24.93;22.20;;;;;;;19.65;87.36;156413.44;4952513;29;20447;-76
2022/08/19 04:34:15;;;;;;;24.30;21.80;;;;;;;19.62;87.71;156405.66;4968733;28;20534;-77
2022/08/19 04:36:44;;;;;;;24.53;21.90;;;;;;;19.60;87.77;156401.72;4975794;28;20861;-77
2022/08/19 04:39:15;;;;;;;23.13;20.10;;;;;;;19.63;87.56;156408.22;4973390;28;20821;-77
2022/08/19 04:44:30;;;;;;;24.80;21.83;;;;;;;19.62;87.44;156406.91;4973734;28;20426;-77
2022/08/19 04:46:57;;;;;;;23.23;20.70;;;;;;;19.67;87.37;156418.69;4962200;28;20474;-76
2022/08/19 04:49:26;;;;;;;23.23;20.73;;;;;;;19.62;87.35;156405.66;4974981;28;20538;-77
2022/08/19 04:51:54;;;;;;;25.00;21.63;;;;;;;19.67;87.32;156418.69;4966558;28;20455;-77
2022/08/19 04:54:22;;;;;;;25.93;22.47;;;;;;;19.63;87.48;156408.22;4955369;28;20482;-77
2022/08/19 04:56:50;;;;;;;22.90;20.10;;;;;;;19.64;87.33;156412.16;4972189;28;20458;-76
2022/08/19 04:59:18;;;;;;;22.20;19.90;;;;;;;19.68;87.34;156421.25;4955413;28;20501;-76
2022/08/19 05:01:49;;;;;;;23.03;20.63;;;;;;;19.70;87.13;156426.47;4983459;28;20481;-76
2022/08/19 05:04:19;;;;;;;23.90;21.40;;;;;;;19.66;87.36;156416.06;4970780;28;20442;-76
2022/08/19 05:06:48;;;;;;;26.70;21.60;;;;;;;19.63;87.69;156408.22;4954690;28;20490;-76
2022/08/19 05:09:16;;;;;;;27.97;25.07;;;;;;;19.65;87.51;156413.44;4970650;28;20442;-76
2022/08/19 05:11:42;;;;;;;24.03;21.60;;;;;;;19.59;87.90;156397.81;4969727;28;20577;-76
2022/08/19 05:14:12;;;;;;;23.90;21.40;;;;;;;19.65;87.64;156414.75;4955463;28;20493;-76
2022/08/19 05:16:39;;;;;;;25.83;23.13;;;;;;;19.65;87.58;156413.44;4971488;28;20505;-76
2022/08/19 05:24:35;;;;;;;22.97;20.57;;;;;;;19.70;87.56;156427.78;4954178;28;20454;-76
2022/08/19 05:27:05;;;;;;;25.33;21.60;;;;;;;19.69;87.74;156423.88;4954888;28;20488;-76
2022/08/19 05:29:33;;;;;;;24.37;21.77;;;;;;;19.72;87.62;156431.72;4955418;28;20454;-76
2022/08/19 05:32:01;;;;;;;25.67;22.87;;;;;;;19.72;87.65;156433.03;4964469;28;20458;-76
2022/08/19 05:34:28;;;;;;;22.80;20.30;;;;;;;19.70;87.61;156427.78;4952929;28;20501;-76
2022/08/19 05:36:58;;;;;;;27.90;22.00;;;;;;;19.73;87.65;156434.28;4971282;28;20457;-75
2022/08/19 05:39:27;;;;;;;24.17;21.50;;;;;;;19.75;87.68;156439.56;4971867;28;20541;-75
2022/08/19 05:41:57;;;;;;;22.40;20.03;;;;;;;19.74;87.53;156436.91;4971792;28;20577;-76
2022/08/19 05:44:25;;;;;;;26.43;22.40;;;;;;;19.71;87.85;156429.09;4971283;28;20470;-76
2022/08/19 05:46:53;;;;;;;24.00;21.40;;;;;;;19.72;87.89;156433.03;4972719;28;20453;-76
2022/08/19 05:49:22;;;;;;;24.80;22.23;;;;;;;19.74;87.76;156436.91;4984529;28;20802;-76
2022/08/19 05:51:49;;;;;;;23.77;21.23;;;;;;;19.78;87.48;156447.31;4964480;28;20792;-75
2022/08/19 05:54:18;;;;;;;24.00;21.50;;;;;;;19.78;87.58;156447.31;4972718;28;20452;-76
2022/08/19 05:56:47;;;;;;;24.80;22.10;;;;;;;19.74;87.84;156438.22;4972676;28;20549;-75
2022/08/19 05:59:15;;;;;;;22.07;19.83;;;;;;;19.77;87.69;156446.06;4963493;28;20513;-75
2022/08/19 06:01:43;;;;;;;23.80;21.30;;;;;;;19.79;87.61;156451.28;4971845;28;20517;-76
2022/08/19 06:04:10;;;;;;;24.00;20.80;;;;;;;19.75;87.87;156440.81;4973820;28;20481;-75
2022/08/19 06:06:37;;;;;;;23.00;20.70;;;;;;;19.79;87.58;156449.94;4973433;28;20452;-76
2022/08/19 06:09:05;;;;;;;24.00;21.50;;;;;;;19.81;87.48;156456.47;4980033;28;20450;-75
2022/08/19 06:11:38;;;;;;;23.63;21.23;;;;;;;19.81;88.11;156455.16;4973486;28;20496;-76
2022/08/19 06:14:08;;;;;;;22.20;19.87;;;;;;;19.80;87.89;156452.59;4957506;28;20442;-75
2022/08/19 06:16:35;;;;;;;23.47;20.23;;;;;;;19.86;87.39;156469.50;4974451;28;20932;-75
2022/08/19 06:19:06;;;;;;;23.90;21.40;;;;;;;19.80;88.45;156452.59;4975335;28;20481;-76
2022/08/19 06:21:34;;;;;;;26.17;22.30;;;;;;;19.79;89.84;156449.94;4957913;28;20604;-76
2022/08/19 06:24:01;;;;;;;24.03;21.67;;;;;;;19.79;90.09;156451.28;4956832;28;20466;-76
2022/08/19 06:26:28;;;;;;;24.87;22.23;;;;;;;19.81;91.96;156455.16;4975027;28;20767;-76
2022/08/19 06:28:56;;;;;;;25.07;22.47;;;;;;;19.78;92.69;156447.31;4965488;28;20565;-77
2022/08/19 06:31:25;;;;;;;24.10;21.60;;;;;;;19.75;93.35;156439.56;4965222;28;20461;-77
2022/08/19 06:33:52;;;;;;;25.00;22.33;;;;;;;19.73;94.23;156434.28;4949628;28;20845;-77
2022/08/19 06:36:20;;;;;;;26.00;23.33;;;;;;;19.71;94.40;156429.09;4954475;29;20451;-77
2022/08/19 06:38:47;;;;;;;26.23;23.53;;;;;;;19.70;94.79;156426.47;4965233;28;20761;-77
2022/08/19 06:41:14;;;;;;;23.93;21.10;;;;;;;19.68;95.34;156421.25;4955660;28;21008;-77
2022/08/19 06:43:42;;;;;;;24.80;22.17;;;;;;;19.62;95.25;156405.66;4958651;28;20457;-77
2022/08/19 06:46:15;;;;;;;24.23;21.67;;;;;;;19.58;95.87;156395.19;4964534;28;20457;-77
2022/08/19 06:48:42;;;;;;;24.50;21.90;;;;;;;19.49;95.52;156371.72;4956424;28;20486;-77
2022/08/19 06:51:09;;;;;;;26.07;23.23;;;;;;;19.50;95.62;156374.34;4941551;28;20537;-77
2022/08/19 06:53:36;;;;;;;25.57;22.87;;;;;;;19.51;95.50;156376.97;4965538;28;20466;-77
2022/08/19 06:56:03;;;;;;;24.83;22.17;;;;;;;19.51;96.39;156376.97;4987011;28;20437;-77
2022/08/19 06:58:31;;;;;;;25.63;23.03;;;;;;;19.49;96.60;156371.72;4976354;28;20492;-77
2022/08/19 07:01:00;;;;;;;26.13;23.47;;;;;;;19.50;97.04;156374.34;4976003;28;21080;-77
2022/08/19 07:03:31;;;;;;;25.77;23.00;;;;;;;19.50;96.77;156374.34;4982532;28;20458;-77
2022/08/19 07:05:58;;;;;;;25.03;22.37;;;;;;;19.53;96.40;156382.16;4961587;28;20544;-77
2022/08/19 07:08:26;;;;;;;28.90;23.43;;;;;;;19.53;97.54;156382.16;4994447;28;20442;-77
2022/08/19 07:10:54;;;;;;;27.13;23.50;;;;;;;19.50;97.30;156375.66;4977933;28;21013;-77
2022/08/19 07:13:22;;;;;;;25.37;22.77;;;;;;;19.52;97.18;156380.84;4963879;28;20451;-77
2022/08/19 07:15:49;;;;;;;23.43;20.70;;;;;;;19.54;96.96;156384.78;4955815;28;20525;-77
2022/08/19 07:18:17;;;;;;;24.40;21.83;;;;;;;19.52;96.52;156379.53;4983790;28;20608;-77
2022/08/19 07:20:45;;;;;;;24.27;21.67;;;;;;;19.53;97.51;156382.16;4973116;28;20473;-77
2022/08/19 07:23:12;;;;;;;27.00;24.27;;;;;;;19.53;97.30;156382.16;4959545;28;20446;-77
2022/08/19 07:25:39;;;;;;;24.30;21.80;;;;;;;19.46;96.17;156365.19;4983127;28;20485;-77
2022/08/19 07:28:09;;;;;;;24.10;21.60;;;;;;;19.54;96.10;156384.78;4975177;28;20449;-77
2022/08/19 07:30:37;;;;;;;23.70;21.17;;;;;;;19.57;96.04;156392.56;4962990;28;20442;-77
2022/08/19 07:33:04;;;;;;;24.30;21.30;;;;;;;19.62;95.24;156406.91;4973518;28;20469;-77
2022/08/19 07:35:32;;;;;;;23.90;20.90;;;;;;;19.61;95.63;156403.03;4977208;28;20460;-77
2022/08/19 07:38:02;;;;;;;25.80;22.23;;;;;;;19.57;95.42;156393.88;4974785;28;20556;-77
2022/08/19 07:40:32;;;;;;;25.17;21.10;;;;;;;19.57;95.22;156392.56;4974511;28;20469;-77
2022/08/19 07:42:59;;;;;;;24.93;22.33;;;;;;;19.57;96.09;156392.56;4967162;28;20449;-78
2022/08/19 07:45:27;;;;;;;26.10;21.37;;;;;;;19.58;96.42;156396.50;4960007;28;20463;-77
2022/08/19 07:47:53;;;;;;;25.40;22.80;;;;;;;19.47;97.14;156366.50;4949123;28;20454;-77
2022/08/19 07:50:21;;;;;;;25.50;20.87;;;;;;;19.44;98.63;156361.31;4972906;28;20434;-77
2022/08/19 07:52:49;;;;;;;25.33;22.47;;;;;;;19.41;97.99;156353.47;4970495;28;20458;-77
2022/08/19 07:55:19;;;;;;;25.10;21.90;;;;;;;19.39;99.79;156348.28;4973616;28;21874;-77
2022/08/19 07:57:46;;;;;;;24.60;21.50;;;;;;;19.40;99.07;156350.91;4960737;28;20462;-77
2022/08/19 08:00:14;;;;;;;24.60;21.90;;;;;;;19.37;100.00;156343.06;4965950;28;20477;-77
2022/08/19 08:02:42;;;;;;;25.10;22.20;;;;;;;19.35;99.71;156337.78;4960558;28;20525;-77
2022/08/19 08:10:44;;;;;;;22.97;20.47;;;;;;;19.24;100.00;156309.13;4970707;28;20442;-77
2022/08/19 08:13:11;;;;;;;22.43;20.13;;;;;;;19.23;100.00;156306.53;4963524;28;20497;-77
2022/08/19 08:15:39;;;;;;;25.07;21.77;;;;;;;19.22;100.00;156303.88;4959109;28;20438;-77
2022/08/19 08:18:07;;;;;;;24.90;21.90;;;;;;;19.23;100.00;156306.53;4976028;28;20551;-86
2022/08/19 08:20:34;;;;;;;25.07;22.47;;;;;;;19.20;100.00;156297.38;4951217;28;20493;-85
2022/08/19 08:25:47;;;;;;;27.60;22.83;;;;;;;19.22;100.00;156303.88;4961459;28;20501;-84
2022/08/19 08:28:13;;;;;;;23.73;21.23;;;;;;;19.21;100.00;156301.31;4938854;29;20451;-85
2022/08/19 08:30:41;;;;;;;24.47;21.40;;;;;;;19.19;100.00;156296.13;4971150;28;20474;-84
2022/08/19 08:33:08;;;;;;;24.97;22.47;;;;;;;19.15;100.00;156285.66;4974373;28;20458;-84
2022/08/19 08:35:35;;;;;;;27.10;21.80;;;;;;;19.15;100.00;156285.66;4969983;28;20810;-84
2022/08/19 08:38:04;;;;;;;25.70;22.67;;;;;;;19.18;100.00;156293.50;4967793;28;20458;-84
2022/08/19 08:40:39;;;;;;;25.77;22.30;;;;;;;19.16;100.00;156286.97;4966656;28;20449;-85
2022/08/19 08:43:12;;;;;;;24.20;21.53;;;;;;;19.18;100.00;156293.50;4973675;28;20464;-84
2022/08/19 08:45:44;;;;;;;24.80;21.47;;;;;;;19.25;100.00;156311.72;4971191;28;20442;-84
2022/08/19 08:48:20;;;;;;;26.70;23.17;;;;;;;19.26;100.00;156314.34;4936713;29;20432;-84
2022/08/19 08:50:50;;;;;;;26.20;22.93;;;;;;;19.34;100.00;156335.19;4955946;28;20448;-84
2022/08/19 08:53:18;;;;;;;24.40;21.90;;;;;;;19.38;100.00;156345.66;4953910;28;20452;-84
2022/08/19 08:55:46;;;;;;;26.43;21.73;;;;;;;19.48;100.00;156370.44;4975172;28;20528;-84
2022/08/19 08:58:18;;;;;;;24.37;21.77;;;;;;;19.53;100.00;156382.16;4965772;28;20477;-84
2022/08/19 09:00:47;;;;;;;24.03;21.40;;;;;;;19.56;100.00;156390.00;4955449;28;20549;-84
2022/08/19 09:03:19;;;;;;;29.37;22.70;;;;;;;19.69;100.00;156423.88;4973196;28;20557;-83
2022/08/19 09:05:50;;;;;;;23.17;20.57;;;;;;;19.74;100.00;156438.22;4960208;28;20468;-84
2022/08/19 09:08:23;;;;;;;25.43;22.10;;;;;;;19.84;100.00;156464.31;4968154;28;20446;-84
2022/08/19 09:10:53;;;;;;;28.17;23.47;;;;;;;19.90;100.00;156478.66;4973077;28;20482;-84
2022/08/19 09:13:27;;;;;;;24.67;22.27;;;;;;;19.95;100.00;156491.69;4989514;28;20536;-84
2022/08/19 09:16:01;;;;;;;25.70;21.97;;;;;;;19.89;100.00;156476.03;4967274;28;20798;-84
2022/08/19 09:18:40;;;;;;;24.30;21.50;;;;;;;19.86;100.00;156468.19;4960083;28;20459;-77
2022/08/19 09:21:08;;;;;;;23.87;21.40;;;;;;;19.88;100.00;156473.44;4973270;28;20513;-77
2022/08/19 09:23:35;;;;;;;24.17;21.57;;;;;;;19.86;100.00;156469.50;4938099;28;20443;-77
2022/08/19 09:26:02;;;;;;;26.40;22.43;;;;;;;19.80;100.00;156453.84;4953878;28;20719;-77
2022/08/19 09:28:31;;;;;;;24.13;21.50;;;;;;;19.78;100.00;156448.63;4957254;28;20466;-77
2022/08/19 09:30:57;;;;;;;23.97;21.47;;;;;;;19.80;100.00;156452.59;4960122;28;20443;-77
2022/08/19 09:33:24;;;;;;;23.30;20.90;;;;;;;19.77;100.00;156444.75;4963725;28;20871;-77
2022/08/19 09:35:51;;;;;;;22.97;20.67;;;;;;;19.75;100.00;156439.56;4973210;28;20449;-77
2022/08/19 09:38:18;;;;;;;25.60;20.43;;;;;;;19.71;100.00;156430.41;4990624;28;20548;-77
2022/08/19 09:40:44;;;;;;;22.43;20.10;;;;;;;19.76;100.00;156442.13;4973451;28;20524;-77
2022/08/19 09:43:11;;;;;;;22.00;19.53;;;;;;;19.73;100.00;156434.28;4982079;28;20489;-77
2022/08/19 09:45:39;;;;;;;23.37;20.90;;;;;;;19.76;100.00;156443.44;4983755;28;20454;-76
2022/08/19 09:48:06;;;;;;;23.53;21.03;;;;;;;19.78;100.00;156447.31;4974936;28;20501;-76
2022/08/19 09:50:38;;;;;;;25.27;22.03;;;;;;;19.79;100.00;156449.94;4972893;28;20530;-76
2022/08/19 09:53:05;;;;;;;24.20;20.83;;;;;;;19.77;100.00;156444.75;4966554;28;20936;-77
2022/08/19 09:55:32;;;;;;;24.17;21.57;;;;;;;19.76;100.00;156443.44;4966538;28;20476;-77
2022/08/19 09:58:00;;;;;;;27.63;23.20;;;;;;;19.80;100.00;156452.59;4957459;28;20553;-77
2022/08/19 10:00:27;;;;;;;23.83;21.20;;;;;;;19.77;100.00;156444.75;4957909;28;20435;-77
2022/08/19 10:02:55;;;;;;;22.17;19.87;;;;;;;19.77;100.00;156446.06;4964287;28;20473;-77
2022/08/19 10:08:07;;;;;;;23.20;20.67;;;;;;;19.71;100.00;156429.09;4967687;28;20461;-78
2022/08/19 10:10:36;;;;;;;27.70;22.50;;;;;;;19.72;100.00;156431.72;4973968;28;20443;-77
2022/08/19 10:13:03;;;;;;;21.80;19.60;;;;;;;19.75;100.00;156440.81;4974952;28;20454;-77
2022/08/19 10:15:30;;;;;;;24.27;21.33;;;;;;;19.78;100.00;156448.63;4941739;28;20505;-78
2022/08/19 10:17:59;;;;;;;22.20;19.90;;;;;;;19.77;100.00;156446.06;4965861;28;20554;-77
2022/08/19 10:20:25;;;;;;;22.70;20.37;;;;;;;19.82;100.00;156459.09;4972036;28;20450;-77
2022/08/19 10:22:52;;;;;;;22.60;20.30;;;;;;;19.84;100.00;156463.00;4970393;28;20512;-77
2022/08/19 10:25:19;;;;;;;23.63;19.47;;;;;;;19.84;100.00;156464.31;4978178;28;21019;-77
2022/08/19 10:27:45;;;;;;;24.70;20.13;;;;;;;19.86;100.00;156468.19;4975200;28;20458;-77
2022/08/19 10:30:14;;;;;;;23.57;21.07;;;;;;;19.90;100.00;156478.66;4984294;28;20540;-77
2022/08/19 10:32:40;;;;;;;23.27;19.87;;;;;;;19.91;100.00;156481.22;4963804;28;20495;-77
2022/08/19 10:35:09;;;;;;;22.30;20.10;;;;;;;19.93;100.00;156487.78;4962725;28;20463;-77
2022/08/19 10:37:36;;;;;;;22.30;19.90;;;;;;;19.98;100.00;156500.81;4975827;28;20450;-77
2022/08/19 10:40:06;;;;;;;22.17;19.97;;;;;;;20.00;100.00;156504.72;4957789;28;20971;-77
2022/08/19 10:42:33;;;;;;;24.00;19.50;;;;;;;20.03;100.00;156512.53;4970743;28;20481;-76
2022/08/19 10:45:00;;;;;;;21.10;18.73;;;;;;;20.03;100.00;156512.53;4969337;28;20949;-79
2022/08/19 10:47:26;;;;;;;21.03;18.30;;;;;;;20.11;100.00;156532.09;4959564;28;20538;-78
2022/08/19 10:52:40;;;;;;;22.50;20.30;;;;;;;20.20;100.00;156556.84;4958151;28;20441;-78
2022/08/19 10:57:53;;;;;;;21.70;19.50;;;;;;;20.31;100.00;156585.63;4955228;28;20485;-78
2022/08/19 11:00:20;;;;;;;20.70;18.70;;;;;;;20.34;100.00;156593.44;4974177;28;20452;-78
2022/08/19 11:02:47;;;;;;;21.50;19.40;;;;;;;20.39;100.00;156605.16;4975570;28;20466;-78
2022/08/19 11:05:14;;;;;;;18.53;16.73;;;;;;;20.34;100.00;156593.44;4973760;28;20964;-78
2022/08/19 11:07:44;;;;;;;19.23;17.23;;;;;;;20.37;100.00;156601.28;4971308;28;20462;-78
2022/08/19 11:10:13;;;;;;;20.20;17.17;;;;;;;20.34;100.00;156593.44;4964634;28;20450;-78
2022/08/19 11:12:40;;;;;;;18.70;16.80;;;;;;;20.34;100.00;156593.44;4967075;28;20776;-78
2022/08/19 11:15:10;;;;;;;17.70;15.97;;;;;;;20.28;100.00;156577.78;4956951;28;20446;-78
2022/08/19 11:17:40;;;;;;;18.37;16.53;;;;;;;20.30;100.00;156583.03;4954622;28;20467;-77
2022/08/19 11:20:08;;;;;;;16.70;15.10;;;;;;;20.30;100.00;156581.72;4964803;28;20984;-78
2022/08/19 11:22:35;;;;;;;17.20;15.40;;;;;;;20.28;100.00;156576.50;4984505;28;20574;-77
2022/08/19 11:25:04;;;;;;;16.33;14.70;;;;;;;20.22;100.00;156562.13;4955847;28;20892;-77
2022/08/19 11:27:31;;;;;;;17.63;15.50;;;;;;;20.20;100.00;156556.84;4981376;28;20461;-77
2022/08/19 11:29:57;;;;;;;17.60;15.40;;;;;;;20.23;100.00;156563.38;4961416;28;20446;-77
2022/08/19 11:32:24;;;;;;;17.63;15.73;;;;;;;20.20;100.00;156556.84;4974900;28;20453;-79
2022/08/19 11:34:51;;;;;;;17.30;15.50;;;;;;;20.20;100.00;156556.84;4992757;28;20481;-79